Time;durP1;ratioP1;P1;durP2;ratioP2;P2;SDS_P1;SDS_P2;PMS_P1;PMS_P2;Temp;Humidity;BMP_temperature;BMP_pressure;BME280_temperature;BME280_humidity;BME280_pressure;Samples;Min_cycle;Max_cycle;Signal;HPM_P1;HPM_P2
2022/10/18 00:00:43;;;;;;;17.50;9.30;;;11.30;99.90;;;;;;5086722;28;20330;-67
2022/10/18 00:03:10;;;;;;;16.90;9.53;;;11.30;99.90;;;;;;5092921;28;20190;-67
2022/10/18 00:05:37;;;;;;;17.70;9.27;;;11.30;99.90;;;;;;5092349;28;20310;-68
2022/10/18 00:08:05;;;;;;;16.70;8.87;;;11.20;99.90;;;;;;5093204;28;20216;-67
2022/10/18 00:10:32;;;;;;;20.20;9.10;;;11.30;99.90;;;;;;5086409;28;20715;-68
2022/10/18 00:12:59;;;;;;;23.33;10.03;;;11.20;99.90;;;;;;5092812;28;20206;-68
2022/10/18 00:15:26;;;;;;;19.30;8.87;;;11.20;99.90;;;;;;5092446;28;20252;-69
2022/10/18 00:17:53;;;;;;;17.20;9.53;;;11.20;99.90;;;;;;5092695;28;20569;-70
2022/10/18 00:20:19;;;;;;;16.67;9.03;;;11.20;99.90;;;;;;5090549;28;20576;-70
2022/10/18 00:22:46;;;;;;;20.30;9.60;;;11.10;99.90;;;;;;5093293;28;20557;-70
2022/10/18 00:25:15;;;;;;;17.60;8.77;;;11.10;99.90;;;;;;5091187;28;20224;-70
2022/10/18 00:27:41;;;;;;;20.13;9.37;;;11.10;99.90;;;;;;5092067;28;20216;-70
2022/10/18 00:30:09;;;;;;;16.93;8.97;;;11.10;99.90;;;;;;5088367;28;20222;-70
2022/10/18 00:32:37;;;;;;;19.33;9.10;;;11.10;99.90;;;;;;5092309;28;20200;-72
2022/10/18 00:35:04;;;;;;;19.77;9.30;;;11.10;99.90;;;;;;5091915;28;20249;-70
2022/10/18 00:37:32;;;;;;;14.10;8.33;;;11.00;99.90;;;;;;5092354;28;20219;-70
2022/10/18 00:39:58;;;;;;;15.43;8.57;;;11.10;99.90;;;;;;5089357;28;20215;-70
2022/10/18 00:42:29;;;;;;;15.43;8.80;;;11.00;99.90;;;;;;5091928;28;20581;-69
2022/10/18 00:45:14;;;;;;;15.27;8.47;;;11.00;99.90;;;;;;5092392;28;20569;-69
2022/10/18 00:47:42;;;;;;;16.73;8.53;;;11.00;99.90;;;;;;5086251;28;20565;-69
2022/10/18 00:50:10;;;;;;;16.83;8.73;;;11.00;99.90;;;;;;5092257;28;20209;-69
2022/10/18 00:52:39;;;;;;;16.00;8.80;;;11.00;99.90;;;;;;5091864;28;20713;-69
2022/10/18 00:55:07;;;;;;;15.30;8.50;;;11.00;99.90;;;;;;5090442;28;20204;-69
2022/10/18 00:57:37;;;;;;;16.87;9.07;;;11.00;99.90;;;;;;5089113;28;20683;-69
2022/10/18 01:00:08;;;;;;;15.50;8.50;;;10.90;99.90;;;;;;5092092;28;20224;-69
2022/10/18 01:02:35;;;;;;;18.57;9.03;;;10.90;99.90;;;;;;5091566;28;20258;-69
2022/10/18 01:05:03;;;;;;;16.90;8.77;;;10.90;99.90;;;;;;5072066;28;20220;-69
2022/10/18 01:08:01;;;;;;;14.33;8.27;;;10.90;99.90;;;;;;5091584;28;20203;-69
2022/10/18 01:10:34;;;;;;;13.90;8.00;;;10.90;99.90;;;;;;5078190;28;20234;-69
2022/10/18 01:13:13;;;;;;;18.60;9.50;;;10.90;99.90;;;;;;5091889;28;20549;-70
2022/10/18 01:15:48;;;;;;;18.60;8.23;;;10.90;99.90;;;;;;5090790;28;20229;-70
2022/10/18 01:18:23;;;;;;;16.20;8.17;;;10.90;99.90;;;;;;5091434;28;20191;-70
2022/10/18 01:21:04;;;;;;;13.90;8.07;;;10.90;99.90;;;;;;5091977;28;20555;-69
2022/10/18 01:23:47;;;;;;;16.13;8.80;;;10.80;99.90;;;;;;5090171;28;20218;-71
2022/10/18 01:26:30;;;;;;;13.70;8.23;;;10.80;99.90;;;;;;5091560;28;20608;-68
2022/10/18 01:29:08;;;;;;;18.77;8.53;;;10.80;99.90;;;;;;5091171;28;20640;-71
2022/10/18 01:31:44;;;;;;;15.47;8.80;;;10.80;99.90;;;;;;5069332;28;20662;-69
2022/10/18 01:34:15;;;;;;;18.63;9.13;;;10.70;99.90;;;;;;5070671;28;20196;-69
2022/10/18 01:36:45;;;;;;;18.00;8.83;;;10.70;99.90;;;;;;5071409;28;20670;-69
2022/10/18 01:39:16;;;;;;;18.60;9.37;;;10.70;99.90;;;;;;5068917;28;20196;-69
2022/10/18 01:41:45;;;;;;;16.23;9.00;;;10.70;99.90;;;;;;5069293;28;20237;-70
2022/10/18 01:44:17;;;;;;;20.43;9.20;;;10.70;99.90;;;;;;5071317;28;20204;-69
2022/10/18 01:46:47;;;;;;;22.83;8.70;;;10.70;99.90;;;;;;5075446;28;20209;-70
2022/10/18 01:49:14;;;;;;;15.40;8.43;;;10.70;99.90;;;;;;5091075;28;20204;-70
2022/10/18 01:51:40;;;;;;;15.93;8.43;;;10.70;99.90;;;;;;5094345;28;20196;-70
2022/10/18 01:54:09;;;;;;;18.50;8.80;;;10.60;99.90;;;;;;5095508;28;20200;-69
2022/10/18 01:56:45;;;;;;;15.23;8.40;;;10.60;99.90;;;;;;5095398;28;20215;-70
2022/10/18 01:59:30;;;;;;;17.07;8.43;;;10.60;99.90;;;;;;5095546;28;20188;-70
2022/10/18 02:02:07;;;;;;;18.17;8.90;;;10.60;99.90;;;;;;5083548;28;20250;-69
2022/10/18 02:04:41;;;;;;;15.63;8.77;;;10.60;99.90;;;;;;5074527;28;20196;-68
2022/10/18 02:07:17;;;;;;;19.17;8.90;;;10.60;99.90;;;;;;5073111;28;20228;-69
2022/10/18 02:09:49;;;;;;;16.73;8.97;;;10.50;99.90;;;;;;5075109;28;20208;-69
2022/10/18 02:12:17;;;;;;;17.33;9.60;;;10.50;99.90;;;;;;5075466;28;20693;-69
2022/10/18 02:14:45;;;;;;;16.57;9.47;;;10.50;99.90;;;;;;5095446;28;20558;-69
2022/10/18 02:17:15;;;;;;;15.93;9.27;;;10.50;99.90;;;;;;5094665;28;20206;-69
2022/10/18 02:19:45;;;;;;;18.50;9.70;;;10.40;99.90;;;;;;5095275;28;20566;-69
2022/10/18 02:22:14;;;;;;;14.10;8.60;;;10.40;99.90;;;;;;5093246;28;20231;-70
2022/10/18 02:24:46;;;;;;;16.73;9.50;;;10.40;99.90;;;;;;5095171;28;20216;-70
2022/10/18 02:27:13;;;;;;;16.17;9.07;;;10.40;99.90;;;;;;5094865;28;20662;-70
2022/10/18 02:29:41;;;;;;;17.13;8.83;;;10.40;99.90;;;;;;5094887;28;20204;-69
2022/10/18 02:32:17;;;;;;;18.57;9.10;;;10.40;99.90;;;;;;5093070;28;20290;-69
2022/10/18 02:34:47;;;;;;;18.47;8.67;;;10.40;99.90;;;;;;5095154;28;20192;-69
2022/10/18 02:37:15;;;;;;;16.10;8.63;;;10.40;99.90;;;;;;5094871;28;20749;-70
2022/10/18 02:39:45;;;;;;;19.70;9.07;;;10.30;99.90;;;;;;5094858;28;20212;-69
2022/10/18 02:42:14;;;;;;;19.17;8.83;;;10.30;99.90;;;;;;5093153;28;20207;-69
2022/10/18 02:44:41;;;;;;;18.90;8.73;;;10.30;99.90;;;;;;5094640;28;20215;-69
2022/10/18 02:47:11;;;;;;;16.80;9.07;;;10.30;99.90;;;;;;5094419;28;20225;-71
2022/10/18 02:49:39;;;;;;;18.63;8.40;;;10.30;99.90;;;;;;5094730;28;20207;-69
2022/10/18 02:52:06;;;;;;;19.17;9.57;;;10.30;99.90;;;;;;5092894;28;20207;-70
2022/10/18 02:54:33;;;;;;;19.20;9.67;;;10.30;99.90;;;;;;5094974;28;20558;-69
2022/10/18 02:56:59;;;;;;;16.57;8.53;;;10.30;99.90;;;;;;5093895;28;20207;-70
2022/10/18 02:59:26;;;;;;;20.37;9.53;;;10.30;99.90;;;;;;5094430;28;20210;-70
2022/10/18 03:01:53;;;;;;;17.80;8.97;;;10.30;99.90;;;;;;5091270;28;20237;-70
2022/10/18 03:04:20;;;;;;;15.80;8.60;;;10.30;99.90;;;;;;5094510;28;20204;-70
2022/10/18 03:06:48;;;;;;;17.17;8.27;;;10.30;99.90;;;;;;5085769;28;20639;-70
2022/10/18 03:09:15;;;;;;;14.87;8.80;;;10.30;99.90;;;;;;5093619;28;20211;-69
2022/10/18 03:11:41;;;;;;;17.83;8.97;;;10.20;99.90;;;;;;5094160;28;20627;-69
2022/10/18 03:14:08;;;;;;;14.30;8.07;;;10.20;99.90;;;;;;5093850;28;20204;-70
2022/10/18 03:16:35;;;;;;;14.70;8.20;;;10.20;99.90;;;;;;5092582;28;20200;-69
2022/10/18 03:19:02;;;;;;;17.27;9.10;;;10.20;99.90;;;;;;5093511;28;20212;-69
2022/10/18 03:21:29;;;;;;;16.10;8.77;;;10.20;99.90;;;;;;5094261;28;20712;-69
2022/10/18 03:23:57;;;;;;;13.80;7.97;;;10.20;99.90;;;;;;5093441;28;20199;-67
2022/10/18 03:26:24;;;;;;;17.03;8.40;;;10.20;99.90;;;;;;5086223;28;20235;-69
2022/10/18 03:28:51;;;;;;;16.47;8.57;;;10.20;99.90;;;;;;5072994;28;20204;-69
2022/10/18 03:31:17;;;;;;;17.33;9.40;;;10.20;99.90;;;;;;5073435;28;20217;-67
2022/10/18 03:33:44;;;;;;;16.00;8.90;;;10.20;99.90;;;;;;5073121;28;20204;-69
2022/10/18 03:36:11;;;;;;;16.47;8.50;;;10.20;99.90;;;;;;5078967;28;20711;-69
2022/10/18 03:38:38;;;;;;;25.10;14.47;;;10.10;99.90;;;;;;5093560;28;20257;-69
2022/10/18 03:41:06;;;;;;;25.73;12.07;;;10.10;99.90;;;;;;5093167;28;20210;-70
2022/10/18 03:43:33;;;;;;;19.40;9.77;;;10.10;99.90;;;;;;5093400;28;20703;-69
2022/10/18 03:46:00;;;;;;;17.27;9.03;;;10.10;99.90;;;;;;5089227;28;20563;-69
2022/10/18 03:48:27;;;;;;;15.97;9.10;;;10.10;99.90;;;;;;5093473;28;20306;-69
2022/10/18 03:50:54;;;;;;;13.03;8.53;;;10.10;99.90;;;;;;5092944;28;20207;-70
2022/10/18 03:53:20;;;;;;;14.73;8.50;;;10.10;99.90;;;;;;5093528;28;20673;-70
2022/10/18 03:55:51;;;;;;;17.10;8.57;;;10.10;99.90;;;;;;5089364;28;20208;-69
2022/10/18 03:58:19;;;;;;;16.53;8.90;;;10.10;99.90;;;;;;5092833;28;20200;-69
2022/10/18 04:00:49;;;;;;;17.17;10.00;;;10.10;99.90;;;;;;5092952;28;20239;-70
2022/10/18 04:03:17;;;;;;;20.73;11.20;;;10.10;99.90;;;;;;5093192;28;20188;-69
2022/10/18 04:05:44;;;;;;;18.60;10.60;;;10.10;99.90;;;;;;5089113;28;20210;-68
2022/10/18 04:08:10;;;;;;;19.10;11.10;;;10.10;99.90;;;;;;5090849;28;20228;-69
2022/10/18 04:10:38;;;;;;;20.37;11.70;;;10.10;99.90;;;;;;5093122;28;20211;-68
2022/10/18 04:13:05;;;;;;;22.93;11.53;;;10.10;99.90;;;;;;5092772;28;20609;-69
2022/10/18 04:15:33;;;;;;;17.63;10.13;;;10.10;99.90;;;;;;5090441;28;20204;-69
2022/10/18 04:18:00;;;;;;;16.60;9.50;;;10.10;99.90;;;;;;5052590;28;20201;-69
2022/10/18 04:20:27;;;;;;;18.10;10.10;;;10.00;99.90;;;;;;5052312;28;20205;-70
2022/10/18 04:22:56;;;;;;;16.47;9.70;;;10.00;99.90;;;;;;5052379;28;20562;-68
2022/10/18 04:25:23;;;;;;;16.90;9.17;;;10.00;99.90;;;;;;5052279;28;20201;-68
2022/10/18 04:27:50;;;;;;;16.77;8.87;;;10.00;99.90;;;;;;5090964;28;20251;-69
2022/10/18 04:30:17;;;;;;;15.73;9.13;;;10.00;99.90;;;;;;5090548;28;20200;-68
2022/10/18 04:32:45;;;;;;;19.23;10.30;;;10.00;99.90;;;;;;5092522;28;20557;-70
2022/10/18 04:35:12;;;;;;;16.27;9.67;;;10.00;99.90;;;;;;5090954;28;20200;-68
2022/10/18 04:37:39;;;;;;;17.67;9.87;;;10.00;99.90;;;;;;5092539;28;20662;-71
2022/10/18 04:40:07;;;;;;;18.70;9.53;;;10.00;99.90;;;;;;5091842;28;20215;-71
2022/10/18 04:42:33;;;;;;;20.83;10.30;;;10.00;99.90;;;;;;5092543;28;20590;-70
2022/10/18 04:45:00;;;;;;;17.50;10.10;;;10.00;99.90;;;;;;5092148;28;20207;-70
2022/10/18 04:47:27;;;;;;;21.17;11.20;;;10.00;99.90;;;;;;5089760;28;20591;-70
2022/10/18 04:49:55;;;;;;;19.80;10.30;;;10.00;99.90;;;;;;5092012;28;20203;-71
2022/10/18 04:52:22;;;;;;;20.17;11.40;;;10.00;99.90;;;;;;5091879;28;20200;-71
2022/10/18 04:54:49;;;;;;;22.30;11.23;;;10.00;99.90;;;;;;5091668;28;20200;-70
2022/10/18 04:57:16;;;;;;;20.67;11.50;;;10.00;99.90;;;;;;5088836;28;20798;-68
2022/10/18 04:59:42;;;;;;;19.27;10.57;;;10.00;99.90;;;;;;5090717;28;20208;-68
2022/10/18 05:02:09;;;;;;;20.63;10.00;;;10.00;99.90;;;;;;5091833;28;20239;-68
2022/10/18 05:04:36;;;;;;;16.17;9.43;;;10.00;99.90;;;;;;5092027;28;20717;-71
2022/10/18 05:07:05;;;;;;;17.23;8.90;;;10.00;99.90;;;;;;5090216;28;20215;-69
2022/10/18 05:09:32;;;;;;;17.20;9.27;;;10.00;99.90;;;;;;5084721;28;20677;-69
2022/10/18 05:11:59;;;;;;;19.87;8.63;;;10.00;99.90;;;;;;5091869;28;20206;-68
2022/10/18 05:14:25;;;;;;;16.50;8.87;;;10.00;99.90;;;;;;5092048;28;20301;-70
2022/10/18 05:16:52;;;;;;;18.50;9.50;;;10.00;99.90;;;;;;5090772;28;20196;-71
2022/10/18 05:19:19;;;;;;;15.70;8.80;;;10.00;99.90;;;;;;5092375;28;20207;-71
2022/10/18 05:21:46;;;;;;;14.93;8.57;;;10.00;99.90;;;;;;5096364;28;20203;-69
2022/10/18 05:24:14;;;;;;;15.70;8.37;;;10.00;99.90;;;;;;5094121;28;20661;-71
2022/10/18 05:26:41;;;;;;;17.07;9.10;;;10.10;99.90;;;;;;5096006;28;20219;-69
2022/10/18 05:29:07;;;;;;;14.93;8.63;;;10.10;99.90;;;;;;5096225;28;20204;-71
2022/10/18 05:31:34;;;;;;;15.80;8.33;;;10.10;99.90;;;;;;5096088;28;20567;-70
2022/10/18 05:34:01;;;;;;;17.87;8.63;;;10.10;99.90;;;;;;5094134;28;20201;-71
2022/10/18 05:36:28;;;;;;;15.67;8.90;;;10.10;99.90;;;;;;5093380;28;20213;-69
2022/10/18 05:38:55;;;;;;;13.10;8.13;;;10.20;99.90;;;;;;5095694;28;20214;-73
2022/10/18 05:41:23;;;;;;;16.97;8.90;;;10.20;99.90;;;;;;5095821;28;20208;-71
2022/10/18 05:43:50;;;;;;;15.37;8.30;;;10.20;99.90;;;;;;5095995;28;20218;-72
2022/10/18 05:46:17;;;;;;;15.90;8.90;;;10.30;99.90;;;;;;5094637;28;20200;-69
2022/10/18 05:48:44;;;;;;;16.53;9.13;;;10.30;99.90;;;;;;5089735;28;20295;-71
2022/10/18 05:51:11;;;;;;;14.30;9.10;;;10.30;99.90;;;;;;5096041;28;20555;-72
2022/10/18 05:53:38;;;;;;;20.33;10.67;;;10.40;99.90;;;;;;5095528;28;20204;-70
2022/10/18 05:56:05;;;;;;;18.17;9.13;;;10.40;99.90;;;;;;5095945;28;20208;-71
2022/10/18 05:58:34;;;;;;;17.30;8.63;;;10.50;99.90;;;;;;5092024;28;22183;-71
2022/10/18 06:01:02;;;;;;;17.50;9.13;;;10.50;99.90;;;;;;5073438;28;20247;-71
2022/10/18 06:03:29;;;;;;;15.73;8.07;;;10.60;99.90;;;;;;5067280;28;20205;-72
2022/10/18 06:06:00;;;;;;;19.83;8.70;;;10.70;99.90;;;;;;5072014;28;20654;-71
2022/10/18 06:08:26;;;;;;;15.33;8.17;;;10.70;99.90;;;;;;5071137;28;20204;-70
2022/10/18 06:10:53;;;;;;;17.07;8.63;;;10.80;99.90;;;;;;5073906;28;20197;-71
2022/10/18 06:13:20;;;;;;;18.47;9.73;;;10.80;99.90;;;;;;5073875;28;20227;-71
2022/10/18 06:15:48;;;;;;;20.30;9.73;;;10.90;99.90;;;;;;5074140;28;20201;-70
2022/10/18 06:18:15;;;;;;;16.77;8.67;;;10.90;99.90;;;;;;5073919;28;20573;-72
2022/10/18 06:20:42;;;;;;;16.63;8.13;;;11.00;99.90;;;;;;5074356;28;20204;-71
2022/10/18 06:23:09;;;;;;;17.20;7.87;;;11.10;99.90;;;;;;5073741;28;20204;-70
2022/10/18 06:25:36;;;;;;;14.73;7.70;;;11.10;99.90;;;;;;5073138;28;20647;-71
2022/10/18 06:28:04;;;;;;;14.63;8.23;;;11.20;99.90;;;;;;5074470;28;20227;-72
2022/10/18 06:30:32;;;;;;;16.90;7.23;;;11.30;99.90;;;;;;5074307;28;20203;-74
2022/10/18 06:33:01;;;;;;;17.17;7.80;;;11.30;99.90;;;;;;5072702;28;20667;-70
2022/10/18 06:35:27;;;;;;;16.07;7.77;;;11.40;99.90;;;;;;5072342;28;20200;-71
2022/10/18 06:37:54;;;;;;;12.80;7.50;;;11.50;99.90;;;;;;5074793;28;20196;-72
2022/10/18 06:40:21;;;;;;;15.20;8.00;;;11.60;99.90;;;;;;5074661;28;20208;-71
2022/10/18 06:42:48;;;;;;;13.73;8.40;;;11.60;99.90;;;;;;5067002;28;20216;-71
2022/10/18 06:45:17;;;;;;;17.70;7.33;;;11.70;99.90;;;;;;5074298;28;20200;-71
2022/10/18 06:47:44;;;;;;;13.00;7.40;;;11.80;99.90;;;;;;5074089;28;20557;-70
2022/10/18 06:50:12;;;;;;;14.80;7.30;;;11.80;99.90;;;;;;5074094;28;20208;-70
2022/10/18 06:52:40;;;;;;;12.73;6.90;;;11.90;99.90;;;;;;5073897;28;20257;-72
2022/10/18 06:55:08;;;;;;;13.33;7.20;;;12.00;99.90;;;;;;5073879;28;20295;-71
2022/10/18 06:57:35;;;;;;;12.47;6.57;;;12.10;99.90;;;;;;5073721;28;20207;-74
2022/10/18 07:00:03;;;;;;;12.80;7.10;;;12.20;99.90;;;;;;5082610;28;20571;-73
2022/10/18 07:02:29;;;;;;;15.30;7.50;;;12.30;99.90;;;;;;5089275;28;20710;-72
2022/10/18 07:04:56;;;;;;;13.00;6.97;;;12.40;99.90;;;;;;5081621;28;20224;-72
2022/10/18 07:07:24;;;;;;;16.13;7.53;;;12.40;99.90;;;;;;5086896;28;20249;-71
2022/10/18 07:09:51;;;;;;;17.77;7.57;;;12.50;99.90;;;;;;5092305;28;20284;-71
2022/10/18 07:12:18;;;;;;;11.67;7.00;;;12.60;99.90;;;;;;5087807;28;20196;-72
2022/10/18 07:14:46;;;;;;;15.60;7.10;;;12.70;99.90;;;;;;5092014;28;20201;-72
2022/10/18 07:17:13;;;;;;;14.77;7.07;;;12.80;99.90;;;;;;5093784;28;20200;-71
2022/10/18 07:19:40;;;;;;;13.30;7.03;;;12.90;99.90;;;;;;5093650;28;20214;-71
2022/10/18 07:22:06;;;;;;;17.83;6.93;;;13.00;99.90;;;;;;5091529;28;20219;-73
2022/10/18 07:24:35;;;;;;;12.50;6.53;;;13.10;99.90;;;;;;5093749;28;20207;-71
2022/10/18 07:27:01;;;;;;;14.50;6.67;;;13.20;99.90;;;;;;5093915;28;20220;-72
2022/10/18 07:29:28;;;;;;;12.20;6.53;;;13.30;99.90;;;;;;5093714;28;20200;-72
2022/10/18 07:31:55;;;;;;;9.97;5.83;;;13.40;99.90;;;;;;5091907;28;20662;-71
2022/10/18 07:34:22;;;;;;;15.50;6.93;;;13.50;99.90;;;;;;5075849;28;20200;-72
2022/10/18 07:36:49;;;;;;;12.10;6.77;;;13.60;99.90;;;;;;5093663;28;20208;-73
2022/10/18 07:39:15;;;;;;;13.43;6.93;;;13.70;99.90;;;;;;5094659;28;20200;-73
2022/10/18 07:41:43;;;;;;;11.40;6.33;;;13.80;99.90;;;;;;5093397;28;20212;-73
2022/10/18 07:44:10;;;;;;;11.93;6.53;;;13.90;99.90;;;;;;5085794;28;20208;-73
2022/10/18 07:46:37;;;;;;;20.83;12.87;;;14.00;99.90;;;;;;5074897;28;20208;-71
2022/10/18 07:49:04;;;;;;;15.73;8.23;;;14.10;99.90;;;;;;5093626;28;20227;-71
2022/10/18 07:51:33;;;;;;;14.17;7.00;;;14.20;99.90;;;;;;5093498;28;20215;-72
2022/10/18 07:54:00;;;;;;;11.60;6.30;;;14.20;99.90;;;;;;5093383;28;20728;-72
2022/10/18 07:56:27;;;;;;;15.57;7.23;;;14.40;99.90;;;;;;5090966;28;20214;-72
2022/10/18 07:58:56;;;;;;;13.13;6.00;;;14.50;99.90;;;;;;5093206;28;20208;-72
2022/10/18 08:01:24;;;;;;;11.70;5.90;;;14.60;99.90;;;;;;5087330;28;20692;-72
2022/10/18 08:03:51;;;;;;;11.57;6.10;;;14.70;99.90;;;;;;5093188;28;20224;-74
2022/10/18 08:06:20;;;;;;;11.40;6.37;;;14.80;99.90;;;;;;5089053;28;20291;-71
2022/10/18 08:08:47;;;;;;;11.50;6.00;;;14.90;99.90;;;;;;5088440;28;20593;-74
2022/10/18 08:11:16;;;;;;;10.53;6.23;;;15.00;99.90;;;;;;5077721;28;20204;-72
2022/10/18 08:13:43;;;;;;;11.30;5.93;;;15.10;99.90;;;;;;5093112;28;20657;-75
2022/10/18 08:16:12;;;;;;;11.10;5.93;;;15.20;99.90;;;;;;5092678;28;20211;-73
2022/10/18 08:18:40;;;;;;;10.63;5.60;;;15.20;99.90;;;;;;5085960;28;20216;-73
2022/10/18 08:21:08;;;;;;;10.50;5.70;;;15.30;99.90;;;;;;5069453;28;20219;-75
2022/10/18 08:23:36;;;;;;;10.97;5.33;;;15.40;99.90;;;;;;5072770;28;20212;-73
2022/10/18 08:26:04;;;;;;;10.93;5.10;;;15.50;99.90;;;;;;5073075;28;20566;-73
2022/10/18 08:28:31;;;;;;;11.83;6.37;;;15.60;99.90;;;;;;5071786;28;20220;-75
2022/10/18 08:31:01;;;;;;;10.73;5.80;;;15.70;99.90;;;;;;5073510;28;20265;-74
2022/10/18 08:33:29;;;;;;;7.87;5.33;;;15.70;99.90;;;;;;5073258;28;20563;-74
2022/10/18 08:35:57;;;;;;;9.07;5.67;;;15.80;99.90;;;;;;5073506;28;20221;-73
2022/10/18 08:38:24;;;;;;;10.47;5.60;;;15.90;99.90;;;;;;5073017;28;20203;-74
2022/10/18 08:40:51;;;;;;;10.87;5.57;;;16.00;99.90;;;;;;5073491;28;20715;-73
2022/10/18 08:43:30;;;;;;;12.27;5.63;;;16.10;99.90;;;;;;5092110;28;20208;-72
2022/10/18 08:45:58;;;;;;;7.53;5.13;;;16.20;99.90;;;;;;5068504;28;20697;-71
2022/10/18 08:48:34;;;;;;;10.53;5.40;;;16.30;99.90;;;;;;5072077;28;20744;-72
2022/10/18 08:51:03;;;;;;;9.47;5.70;;;16.30;99.90;;;;;;5086411;28;20232;-73
2022/10/18 08:53:36;;;;;;;7.97;5.30;;;16.40;99.90;;;;;;5091040;28;20225;-73
2022/10/18 08:56:10;;;;;;;10.87;5.97;;;16.50;99.90;;;;;;5091647;28;20189;-73
2022/10/18 08:58:38;;;;;;;9.30;5.83;;;16.60;99.90;;;;;;5078100;28;20204;-73
2022/10/18 09:01:17;;;;;;;11.00;5.90;;;16.70;99.90;;;;;;5079351;28;20232;-71
2022/10/18 09:04:17;;;;;;;12.57;6.00;;;16.70;99.90;;;;;;5069323;28;20240;-74
2022/10/18 09:06:53;;;;;;;10.13;5.40;;;16.80;99.90;;;;;;5072033;28;20220;-72
2022/10/18 09:09:32;;;;;;;8.93;5.23;;;16.90;99.90;;;;;;5071446;28;20209;-71
2022/10/18 09:12:11;;;;;;;9.67;5.37;;;17.00;99.90;;;;;;5071204;28;20202;-72
2022/10/18 09:15:01;;;;;;;9.37;5.30;;;17.10;99.90;;;;;;5073561;28;20209;-72
2022/10/18 09:17:34;;;;;;;10.47;5.50;;;17.20;99.90;;;;;;5070140;28;20563;-72
2022/10/18 09:20:18;;;;;;;12.53;5.70;;;17.30;99.90;;;;;;5085831;28;20209;-75
2022/10/18 09:22:52;;;;;;;10.07;5.70;;;17.40;99.90;;;;;;5080672;28;20226;-74
2022/10/18 09:25:21;;;;;;;11.03;5.63;;;17.50;99.90;;;;;;5068764;28;20282;-73
2022/10/18 09:27:56;;;;;;;14.20;5.90;;;17.60;99.90;;;;;;5081478;28;20684;-73
2022/10/18 09:30:42;;;;;;;8.73;5.63;;;17.70;99.90;;;;;;5088475;28;20726;-71
2022/10/18 09:33:35;;;;;;;15.63;6.03;;;17.70;99.90;;;;;;5076622;28;20197;-72
2022/10/18 09:36:05;;;;;;;10.77;6.10;;;17.80;99.90;;;;;;5071633;28;20672;-72
2022/10/18 09:38:45;;;;;;;15.57;6.30;;;17.90;99.90;;;;;;5071465;28;20185;-73
2022/10/18 09:41:18;;;;;;;10.57;5.93;;;18.00;99.90;;;;;;5071893;28;20202;-72
2022/10/18 09:43:54;;;;;;;12.17;8.33;;;18.10;99.90;;;;;;5073104;28;20196;-73
2022/10/18 09:46:25;;;;;;;9.90;6.40;;;18.10;99.90;;;;;;5072237;28;20187;-73
2022/10/18 09:48:56;;;;;;;12.90;5.83;;;18.20;99.90;;;;;;5072152;28;20230;-73
2022/10/18 09:51:28;;;;;;;10.10;5.90;;;18.30;99.90;;;;;;5072401;28;20597;-72
2022/10/18 09:54:14;;;;;;;11.57;6.20;;;18.30;99.90;;;;;;5072308;28;20543;-71
2022/10/18 09:56:45;;;;;;;10.23;5.70;;;18.40;99.90;;;;;;5073178;28;20205;-73
2022/10/18 09:59:27;;;;;;;11.37;5.30;;;18.40;99.90;;;;;;5071942;28;20193;-73
2022/10/18 10:01:55;;;;;;;10.77;5.67;;;18.50;99.90;;;;;;5071830;28;20229;-72
2022/10/18 10:04:21;;;;;;;8.00;5.07;;;18.60;99.90;;;;;;5072352;28;20668;-74
2022/10/18 10:06:52;;;;;;;8.00;5.30;;;18.70;99.90;;;;;;5075630;28;20574;-72
2022/10/18 10:09:26;;;;;;;9.63;5.07;;;18.70;99.90;;;;;;5075267;28;20220;-72
2022/10/18 10:11:54;;;;;;;8.93;5.10;;;18.80;99.90;;;;;;5075303;28;20243;-72
2022/10/18 10:14:24;;;;;;;11.80;5.63;;;18.80;99.90;;;;;;5075250;28;20205;-72
2022/10/18 10:16:53;;;;;;;8.60;5.40;;;18.90;99.90;;;;;;5074661;28;20200;-72
2022/10/18 10:19:24;;;;;;;9.40;5.57;;;18.90;99.90;;;;;;5075060;28;20197;-73
2022/10/18 10:21:56;;;;;;;9.10;5.33;;;19.00;99.90;;;;;;5074744;28;20199;-72
2022/10/18 10:24:28;;;;;;;13.60;5.50;;;19.10;99.90;;;;;;5077386;28;20212;-75
2022/10/18 10:27:00;;;;;;;9.97;5.07;;;19.10;99.90;;;;;;5076057;28;20215;-74
2022/10/18 10:29:52;;;;;;;11.07;5.00;;;19.10;99.90;;;;;;5075780;28;20238;-71
2022/10/18 10:32:21;;;;;;;7.17;4.77;;;19.20;99.90;;;;;;5081083;28;20273;-72
2022/10/18 10:34:48;;;;;;;11.20;5.50;;;19.20;99.90;;;;;;5094086;28;20212;-71
2022/10/18 10:37:31;;;;;;;11.80;5.27;;;19.30;99.90;;;;;;5090232;28;20572;-75
2022/10/18 10:40:07;;;;;;;9.37;5.17;;;19.30;99.90;;;;;;5058836;28;20193;-73
2022/10/18 10:42:37;;;;;;;9.93;5.27;;;19.40;99.90;;;;;;5073264;28;20207;-72
2022/10/18 10:45:05;;;;;;;8.27;5.33;;;19.50;99.90;;;;;;5076192;28;20647;-75
2022/10/18 10:47:33;;;;;;;9.30;5.20;;;19.50;99.90;;;;;;5076603;28;20200;-73
2022/10/18 10:50:08;;;;;;;9.13;5.40;;;19.60;99.90;;;;;;5076223;28;20234;-75
2022/10/18 10:52:39;;;;;;;6.93;4.53;;;19.70;99.90;;;;;;5076175;28;20185;-72
2022/10/18 10:55:16;;;;;;;11.20;5.23;;;19.60;99.90;;;;;;5074449;28;20553;-73
2022/10/18 10:57:45;;;;;;;12.37;4.93;;;19.70;99.90;;;;;;5084906;28;20215;-72
2022/10/18 11:00:38;;;;;;;9.73;5.50;;;19.70;99.90;;;;;;5083736;28;20205;-71
2022/10/18 11:03:07;;;;;;;9.00;5.50;;;19.80;99.90;;;;;;5074063;28;20566;-72
2022/10/18 11:05:44;;;;;;;9.13;5.10;;;19.80;99.90;;;;;;5073730;28;20208;-72
2022/10/18 11:08:15;;;;;;;13.83;5.33;;;19.90;99.90;;;;;;5054079;28;20304;-72
2022/10/18 11:10:56;;;;;;;8.07;5.13;;;19.90;99.90;;;;;;5070215;28;20607;-76
2022/10/18 11:13:31;;;;;;;7.93;5.20;;;20.00;99.90;;;;;;5074006;28;20216;-72
2022/10/18 11:16:03;;;;;;;8.50;4.87;;;20.00;99.90;;;;;;5066227;28;20203;-73
2022/10/18 11:18:34;;;;;;;7.97;4.40;;;20.10;99.90;;;;;;5072876;28;20192;-73
2022/10/18 11:21:06;;;;;;;9.63;5.33;;;20.10;99.90;;;;;;5072429;28;20201;-73
2022/10/18 11:23:37;;;;;;;8.47;4.63;;;20.10;99.90;;;;;;5073785;28;20215;-71
2022/10/18 11:26:20;;;;;;;8.97;5.47;;;20.10;99.90;;;;;;5073227;28;20189;-71
2022/10/18 11:29:03;;;;;;;10.57;5.47;;;20.10;99.90;;;;;;5072897;28;20235;-73
2022/10/18 11:31:34;;;;;;;8.60;4.77;;;20.20;99.90;;;;;;5073466;28;20189;-72
2022/10/18 11:34:14;;;;;;;9.27;4.70;;;20.20;99.90;;;;;;5073147;28;20191;-73
2022/10/18 11:36:50;;;;;;;12.93;4.80;;;20.20;99.90;;;;;;5073408;28;20197;-72
2022/10/18 11:39:29;;;;;;;9.07;4.67;;;20.30;99.90;;;;;;5073256;28;20335;-72
2022/10/18 11:42:04;;;;;;;8.87;4.67;;;20.30;99.90;;;;;;5072727;28;20189;-73
2022/10/18 11:44:39;;;;;;;10.33;5.73;;;20.30;99.90;;;;;;5073227;28;20556;-75
2022/10/18 11:47:14;;;;;;;8.23;5.20;;;20.30;99.90;;;;;;5072859;28;20190;-72
2022/10/18 11:50:01;;;;;;;9.40;4.93;;;20.30;99.90;;;;;;5072901;28;20227;-71
2022/10/18 11:52:37;;;;;;;10.07;5.57;;;20.40;99.90;;;;;;5074379;28;20219;-74
2022/10/18 11:55:32;;;;;;;10.90;5.37;;;20.40;99.90;;;;;;5072784;28;20202;-72
2022/10/18 11:58:07;;;;;;;9.80;5.70;;;20.40;99.90;;;;;;5073947;28;20218;-74
2022/10/18 12:00:44;;;;;;;11.03;5.50;;;20.40;99.90;;;;;;5073966;28;20192;-73
2022/10/18 12:03:37;;;;;;;9.03;5.33;;;20.40;99.90;;;;;;5074963;28;20191;-76
2022/10/18 12:06:11;;;;;;;8.57;4.70;;;20.50;99.90;;;;;;5072499;28;20205;-73
2022/10/18 12:08:42;;;;;;;7.17;4.33;;;20.50;99.90;;;;;;5072903;28;20212;-73
2022/10/18 12:11:15;;;;;;;12.77;5.23;;;20.50;99.90;;;;;;5072907;28;20214;-72
2022/10/18 12:13:47;;;;;;;10.23;4.80;;;20.50;99.90;;;;;;5072713;28;20643;-73
2022/10/18 12:16:16;;;;;;;9.60;4.50;;;20.50;99.90;;;;;;5073982;28;20200;-76
2022/10/18 12:18:52;;;;;;;8.97;4.20;;;20.60;99.90;;;;;;5072724;28;20201;-72
2022/10/18 12:21:21;;;;;;;7.13;3.97;;;20.60;99.90;;;;;;5072957;28;20199;-70
2022/10/18 12:23:52;;;;;;;9.27;4.50;;;20.60;99.90;;;;;;5072289;28;20205;-71
2022/10/18 12:26:21;;;;;;;10.37;4.67;;;20.60;99.90;;;;;;5072586;28;20647;-71
2022/10/18 12:28:56;;;;;;;9.50;4.67;;;20.70;99.90;;;;;;5071618;28;20235;-71
2022/10/18 12:31:28;;;;;;;6.77;4.50;;;20.70;99.90;;;;;;5072178;28;20546;-72
2022/10/18 12:33:58;;;;;;;7.67;4.73;;;20.60;99.90;;;;;;5072445;28;20199;-72
2022/10/18 12:36:50;;;;;;;7.13;4.90;;;20.70;99.90;;;;;;5072415;28;20197;-72
2022/10/18 12:39:22;;;;;;;8.33;4.73;;;20.70;99.90;;;;;;5071923;28;20192;-71
2022/10/18 12:41:54;;;;;;;9.43;4.63;;;20.70;99.90;;;;;;5071840;28;20201;-71
2022/10/18 12:44:26;;;;;;;9.33;5.10;;;20.70;99.90;;;;;;5072281;28;20189;-74
2022/10/18 12:46:54;;;;;;;7.87;4.47;;;20.70;99.90;;;;;;5072044;28;20203;-70
2022/10/18 12:49:27;;;;;;;12.33;6.70;;;20.70;99.90;;;;;;5071955;28;20681;-71
2022/10/18 12:51:57;;;;;;;12.57;5.67;;;20.70;99.90;;;;;;5071940;28;20199;-72
2022/10/18 12:54:28;;;;;;;8.10;4.90;;;20.70;99.90;;;;;;5071800;28;20208;-70